KGSH

Goshen Municipal Airport

Goshen, Indiana, USA
METAR KGSH 191453Z AUTO 22011G20KT 10SM CLR M04/M09 A2998 RMK AO2 SLP163 T10391089 55000
Observed Flight Rules
Jan-19 @ 14:53 UTC (36 minutes ago) Visual Flight Rules
Wind Visibility Clouds
220° at 11 knots
 Gusting to 20 knots
10 miles
  • Clear skies
Temperatures Readings
Current -4°C / 25°F
Dewpoint -9°C / 16°F
Humidity 69%
Altimeter 29.98" Hg
Pressure 1016.3 hPa
Elevation 252
METAR KGSH 191453Z AUTO 22011G20KT 10SM CLR M04/M09 A2998 RMK AO2 SLP163 T10391089 55000
Observed Flight Rules
Jan-19 @ 14:53 UTC
(36 minutes ago)
VFR
Wind Visibility
220° at 11 knots
 Gusting to 20 knots
10 miles
Clouds
  • Clear skies
Temperature Dewpoint
-4°C / 25°F -9°C / 16°F
Humidity Altimeter Pressure
69% 29.98" Hg 1016.3 hPa